Airfield :
LOGIN :

Register | Disclaimer

   EN    FR    IT 

 










Legend :    VFR   Marginal VFR   IFR   Intensive IFR   Very Intensive IFR
Visi :
Ceiling :
>= 8 km
>= 3000ft
5 to 8 km
1000 to 3000 ft
1500m to 5 km
500 to 1000 ft
800 to 1500m
200 to 500 ft
< 800m
< 200 ft
Symbols :   Thunderstorms  Fog  Heavy snow  Heavy precipitations  Wind > 20 kt
SIGMETs :     Misc.  Thunderstorms  Icing  Turbulence  Mountain Waves  Volcanic Ashes






- Airport Elevation : 9 ft
- IATA code : ALF


ENAT - Alta

CURRENT METAR :
  • 280550Z 14006KT CAVOK M10/M18 Q0993 RMK WIND 700FT 14015KT

EXPIRED METARs :
  • 280450Z 16008KT CAVOK M09/M17 Q0993 RMK WIND 700FT 17013KT
  • 280350Z AUTO 15005KT 9999 NCD M08/M17 Q0993 RMK WIND 700FT 16013KT

TAF TAF ENAT
Valid from the 28 at 06:00 until the 28 at 15:00 UTC


280500Z 2806/2815 17012KT 9999 SCT030



MET'MAP, your aeronautical weather chart ! - Copyright ORBIFLY December 2007 - Disclaimer

ORBIFLY MET'MAP TEAM :

Programming & Development : Alexandra Zaïnal
Concept & original design : Baudouin d'Aumeries
Assistance for programming : Marc-Olivier Méhu
Technical & hardware support : Manuel Goepfert

Contact : metmap@orbifly.com




SOURCES & CREDITS :

   NOAA